sensor_id;sensor_type;location;lat;lon;timestamp;P1;durP1;ratioP1;P2;durP2;ratioP2
76725;SDS011;65651;53.154;17.916;2023-07-13T00:01:13;12.00;;;8.50;;
76725;SDS011;65651;53.154;17.916;2023-07-13T00:03:42;8.80;;;7.90;;
76725;SDS011;65651;53.154;17.916;2023-07-13T00:06:10;9.90;;;8.10;;
76725;SDS011;65651;53.154;17.916;2023-07-13T00:08:38;10.40;;;8.70;;
76725;SDS011;65651;53.154;17.916;2023-07-13T00:11:06;9.70;;;8.50;;
76725;SDS011;65651;53.154;17.916;2023-07-13T00:13:34;10.30;;;8.50;;
76725;SDS011;65651;53.154;17.916;2023-07-13T00:16:01;10.30;;;8.30;;
76725;SDS011;65651;53.154;17.916;2023-07-13T00:18:29;8.60;;;7.70;;
76725;SDS011;65651;53.154;17.916;2023-07-13T00:20:57;11.90;;;7.70;;
76725;SDS011;65651;53.154;17.916;2023-07-13T00:23:32;9.20;;;8.00;;
76725;SDS011;65651;53.154;17.916;2023-07-13T00:26:02;9.40;;;7.70;;
76725;SDS011;65651;53.154;17.916;2023-07-13T00:28:34;9.10;;;8.00;;
76725;SDS011;65651;53.154;17.916;2023-07-13T00:31:03;12.00;;;8.70;;
76725;SDS011;65651;53.154;17.916;2023-07-13T00:33:30;9.90;;;7.70;;
76725;SDS011;65651;53.154;17.916;2023-07-13T00:36:11;9.40;;;8.00;;
76725;SDS011;65651;53.154;17.916;2023-07-13T00:38:40;8.30;;;7.50;;
76725;SDS011;65651;53.154;17.916;2023-07-13T00:41:09;9.30;;;8.20;;
76725;SDS011;65651;53.154;17.916;2023-07-13T00:43:37;12.10;;;7.40;;
76725;SDS011;65651;53.154;17.916;2023-07-13T00:46:10;10.50;;;8.60;;
76725;SDS011;65651;53.154;17.916;2023-07-13T00:49:01;9.30;;;8.20;;
76725;SDS011;65651;53.154;17.916;2023-07-13T00:51:47;10.10;;;8.10;;
76725;SDS011;65651;53.154;17.916;2023-07-13T00:54:30;9.10;;;7.40;;
76725;SDS011;65651;53.154;17.916;2023-07-13T00:57:07;11.00;;;8.30;;
76725;SDS011;65651;53.154;17.916;2023-07-13T00:59:42;9.90;;;8.60;;
76725;SDS011;65651;53.154;17.916;2023-07-13T01:02:13;13.10;;;9.40;;
76725;SDS011;65651;53.154;17.916;2023-07-13T01:04:41;10.30;;;8.60;;
76725;SDS011;65651;53.154;17.916;2023-07-13T01:07:11;9.20;;;7.90;;
76725;SDS011;65651;53.154;17.916;2023-07-13T01:09:45;10.40;;;8.70;;
76725;SDS011;65651;53.154;17.916;2023-07-13T01:12:13;9.50;;;8.30;;
76725;SDS011;65651;53.154;17.916;2023-07-13T01:14:40;9.10;;;8.20;;
76725;SDS011;65651;53.154;17.916;2023-07-13T01:17:09;12.00;;;9.60;;
76725;SDS011;65651;53.154;17.916;2023-07-13T01:19:41;11.80;;;9.00;;
76725;SDS011;65651;53.154;17.916;2023-07-13T01:22:15;10.40;;;9.30;;
76725;SDS011;65651;53.154;17.916;2023-07-13T01:24:46;12.40;;;9.00;;
76725;SDS011;65651;53.154;17.916;2023-07-13T01:27:19;9.60;;;8.00;;
76725;SDS011;65651;53.154;17.916;2023-07-13T01:29:52;9.20;;;8.20;;
76725;SDS011;65651;53.154;17.916;2023-07-13T01:32:29;11.60;;;8.70;;
76725;SDS011;65651;53.154;17.916;2023-07-13T01:34:59;13.50;;;8.90;;
76725;SDS011;65651;53.154;17.916;2023-07-13T01:37:27;10.60;;;8.60;;
76725;SDS011;65651;53.154;17.916;2023-07-13T01:39:55;13.40;;;9.20;;
76725;SDS011;65651;53.154;17.916;2023-07-13T01:42:22;9.90;;;8.80;;
76725;SDS011;65651;53.154;17.916;2023-07-13T01:44:50;10.30;;;7.90;;
76725;SDS011;65651;53.154;17.916;2023-07-13T01:47:18;8.30;;;6.80;;
76725;SDS011;65651;53.154;17.916;2023-07-13T01:49:46;9.60;;;6.80;;
76725;SDS011;65651;53.154;17.916;2023-07-13T01:52:15;7.40;;;6.00;;
76725;SDS011;65651;53.154;17.916;2023-07-13T01:54:45;8.90;;;7.40;;
76725;SDS011;65651;53.154;17.916;2023-07-13T01:57:35;9.00;;;7.30;;
76725;SDS011;65651;53.154;17.916;2023-07-13T02:00:09;10.40;;;7.60;;
76725;SDS011;65651;53.154;17.916;2023-07-13T02:02:47;13.20;;;8.20;;
76725;SDS011;65651;53.154;17.916;2023-07-13T02:05:18;9.90;;;7.70;;
76725;SDS011;65651;53.154;17.916;2023-07-13T02:07:47;9.70;;;7.10;;
76725;SDS011;65651;53.154;17.916;2023-07-13T02:10:21;10.70;;;7.40;;
76725;SDS011;65651;53.154;17.916;2023-07-13T02:12:50;10.70;;;7.30;;
76725;SDS011;65651;53.154;17.916;2023-07-13T02:15:21;9.60;;;7.20;;
76725;SDS011;65651;53.154;17.916;2023-07-13T02:17:49;9.10;;;7.40;;
76725;SDS011;65651;53.154;17.916;2023-07-13T02:20:17;11.70;;;7.90;;
76725;SDS011;65651;53.154;17.916;2023-07-13T02:22:44;9.10;;;8.00;;
76725;SDS011;65651;53.154;17.916;2023-07-13T02:25:20;10.70;;;6.80;;
76725;SDS011;65651;53.154;17.916;2023-07-13T02:27:49;10.20;;;7.40;;
76725;SDS011;65651;53.154;17.916;2023-07-13T02:30:17;9.10;;;6.40;;
76725;SDS011;65651;53.154;17.916;2023-07-13T02:32:45;7.70;;;6.40;;
76725;SDS011;65651;53.154;17.916;2023-07-13T02:35:13;10.50;;;7.10;;
76725;SDS011;65651;53.154;17.916;2023-07-13T02:37:40;8.40;;;6.80;;
76725;SDS011;65651;53.154;17.916;2023-07-13T02:40:09;8.00;;;7.20;;
76725;SDS011;65651;53.154;17.916;2023-07-13T02:42:38;8.50;;;7.00;;
76725;SDS011;65651;53.154;17.916;2023-07-13T02:45:07;8.50;;;7.70;;
76725;SDS011;65651;53.154;17.916;2023-07-13T02:47:35;8.80;;;7.70;;
76725;SDS011;65651;53.154;17.916;2023-07-13T02:50:03;8.90;;;7.30;;
76725;SDS011;65651;53.154;17.916;2023-07-13T02:52:32;8.90;;;6.90;;
76725;SDS011;65651;53.154;17.916;2023-07-13T02:54:59;9.30;;;6.80;;
76725;SDS011;65651;53.154;17.916;2023-07-13T02:57:27;9.30;;;7.60;;
76725;SDS011;65651;53.154;17.916;2023-07-13T02:59:58;8.10;;;7.30;;
76725;SDS011;65651;53.154;17.916;2023-07-13T03:02:26;7.50;;;6.80;;
76725;SDS011;65651;53.154;17.916;2023-07-13T03:04:56;8.00;;;7.00;;
76725;SDS011;65651;53.154;17.916;2023-07-13T03:07:24;8.80;;;7.10;;
76725;SDS011;65651;53.154;17.916;2023-07-13T03:09:56;9.20;;;6.70;;
76725;SDS011;65651;53.154;17.916;2023-07-13T03:12:26;9.40;;;7.20;;
76725;SDS011;65651;53.154;17.916;2023-07-13T03:14:54;9.80;;;7.20;;
76725;SDS011;65651;53.154;17.916;2023-07-13T03:17:22;7.40;;;6.70;;
76725;SDS011;65651;53.154;17.916;2023-07-13T03:19:50;7.90;;;7.10;;
76725;SDS011;65651;53.154;17.916;2023-07-13T03:22:19;10.50;;;7.60;;
76725;SDS011;65651;53.154;17.916;2023-07-13T03:24:46;8.50;;;7.70;;
76725;SDS011;65651;53.154;17.916;2023-07-13T03:27:17;8.50;;;6.60;;
76725;SDS011;65651;53.154;17.916;2023-07-13T03:29:46;8.70;;;7.40;;
76725;SDS011;65651;53.154;17.916;2023-07-13T03:32:17;7.80;;;7.00;;
76725;SDS011;65651;53.154;17.916;2023-07-13T03:34:44;9.00;;;7.20;;
76725;SDS011;65651;53.154;17.916;2023-07-13T03:37:13;9.80;;;7.50;;
76725;SDS011;65651;53.154;17.916;2023-07-13T03:39:40;10.20;;;7.90;;
76725;SDS011;65651;53.154;17.916;2023-07-13T03:42:12;12.80;;;8.70;;
76725;SDS011;65651;53.154;17.916;2023-07-13T03:45:02;11.00;;;8.90;;
76725;SDS011;65651;53.154;17.916;2023-07-13T03:47:31;10.10;;;8.50;;
76725;SDS011;65651;53.154;17.916;2023-07-13T03:50:00;15.50;;;7.90;;
76725;SDS011;65651;53.154;17.916;2023-07-13T03:52:27;9.50;;;6.80;;
76725;SDS011;65651;53.154;17.916;2023-07-13T03:54:57;12.80;;;7.00;;
76725;SDS011;65651;53.154;17.916;2023-07-13T03:57:25;13.90;;;7.30;;
76725;SDS011;65651;53.154;17.916;2023-07-13T03:59:53;11.90;;;7.30;;
76725;SDS011;65651;53.154;17.916;2023-07-13T04:02:20;9.00;;;7.20;;
76725;SDS011;65651;53.154;17.916;2023-07-13T04:04:48;12.80;;;7.10;;
76725;SDS011;65651;53.154;17.916;2023-07-13T04:07:15;9.10;;;7.30;;
76725;SDS011;65651;53.154;17.916;2023-07-13T04:09:42;9.50;;;6.90;;
76725;SDS011;65651;53.154;17.916;2023-07-13T04:12:11;14.70;;;6.60;;
76725;SDS011;65651;53.154;17.916;2023-07-13T04:14:38;8.50;;;6.50;;
76725;SDS011;65651;53.154;17.916;2023-07-13T04:17:05;8.30;;;6.50;;
76725;SDS011;65651;53.154;17.916;2023-07-13T04:19:33;10.30;;;6.10;;
76725;SDS011;65651;53.154;17.916;2023-07-13T04:22:01;10.30;;;6.20;;
76725;SDS011;65651;53.154;17.916;2023-07-13T04:24:28;7.50;;;5.20;;
76725;SDS011;65651;53.154;17.916;2023-07-13T04:26:55;7.10;;;4.90;;
76725;SDS011;65651;53.154;17.916;2023-07-13T04:29:26;7.80;;;5.40;;
76725;SDS011;65651;53.154;17.916;2023-07-13T04:31:53;10.30;;;4.90;;
76725;SDS011;65651;53.154;17.916;2023-07-13T04:34:20;6.40;;;4.90;;
76725;SDS011;65651;53.154;17.916;2023-07-13T04:36:48;10.80;;;5.10;;
76725;SDS011;65651;53.154;17.916;2023-07-13T04:39:16;10.20;;;4.90;;
76725;SDS011;65651;53.154;17.916;2023-07-13T04:41:43;8.60;;;4.50;;
76725;SDS011;65651;53.154;17.916;2023-07-13T04:44:11;7.00;;;4.90;;
76725;SDS011;65651;53.154;17.916;2023-07-13T04:46:38;7.00;;;4.90;;
76725;SDS011;65651;53.154;17.916;2023-07-13T04:49:05;10.90;;;4.40;;
76725;SDS011;65651;53.154;17.916;2023-07-13T04:51:33;11.90;;;4.10;;
76725;SDS011;65651;53.154;17.916;2023-07-13T04:54:00;7.20;;;4.60;;
76725;SDS011;65651;53.154;17.916;2023-07-13T04:56:27;7.40;;;4.80;;
76725;SDS011;65651;53.154;17.916;2023-07-13T04:58:54;8.10;;;5.10;;
76725;SDS011;65651;53.154;17.916;2023-07-13T05:01:22;13.70;;;5.60;;
76725;SDS011;65651;53.154;17.916;2023-07-13T05:03:49;9.40;;;4.20;;
76725;SDS011;65651;53.154;17.916;2023-07-13T05:06:16;5.10;;;2.90;;
76725;SDS011;65651;53.154;17.916;2023-07-13T05:08:44;5.30;;;2.80;;
76725;SDS011;65651;53.154;17.916;2023-07-13T05:11:11;5.30;;;3.40;;
76725;SDS011;65651;53.154;17.916;2023-07-13T05:13:42;7.20;;;2.50;;
76725;SDS011;65651;53.154;17.916;2023-07-13T05:16:10;7.60;;;3.50;;
76725;SDS011;65651;53.154;17.916;2023-07-13T05:18:38;8.20;;;3.60;;
76725;SDS011;65651;53.154;17.916;2023-07-13T05:21:07;13.60;;;4.20;;
76725;SDS011;65651;53.154;17.916;2023-07-13T05:23:36;6.00;;;3.40;;
76725;SDS011;65651;53.154;17.916;2023-07-13T05:26:04;5.60;;;3.60;;
76725;SDS011;65651;53.154;17.916;2023-07-13T05:28:32;10.30;;;3.90;;
76725;SDS011;65651;53.154;17.916;2023-07-13T05:31:00;5.70;;;3.60;;
76725;SDS011;65651;53.154;17.916;2023-07-13T05:33:28;9.80;;;3.50;;
76725;SDS011;65651;53.154;17.916;2023-07-13T05:35:55;5.80;;;2.70;;
76725;SDS011;65651;53.154;17.916;2023-07-13T05:38:23;3.90;;;2.30;;
76725;SDS011;65651;53.154;17.916;2023-07-13T05:40:55;5.50;;;3.00;;
76725;SDS011;65651;53.154;17.916;2023-07-13T05:43:23;5.00;;;2.60;;
76725;SDS011;65651;53.154;17.916;2023-07-13T05:45:54;5.00;;;2.90;;
76725;SDS011;65651;53.154;17.916;2023-07-13T05:48:28;5.60;;;3.50;;
76725;SDS011;65651;53.154;17.916;2023-07-13T05:50:56;4.80;;;2.60;;
76725;SDS011;65651;53.154;17.916;2023-07-13T05:53:23;5.40;;;2.00;;
76725;SDS011;65651;53.154;17.916;2023-07-13T05:55:54;6.70;;;2.30;;
76725;SDS011;65651;53.154;17.916;2023-07-13T05:58:22;4.90;;;2.10;;
76725;SDS011;65651;53.154;17.916;2023-07-13T06:00:58;5.30;;;3.40;;
76725;SDS011;65651;53.154;17.916;2023-07-13T06:03:27;4.60;;;3.00;;
76725;SDS011;65651;53.154;17.916;2023-07-13T06:05:55;8.60;;;2.60;;
76725;SDS011;65651;53.154;17.916;2023-07-13T06:08:22;7.90;;;3.10;;
76725;SDS011;65651;53.154;17.916;2023-07-13T06:10:50;5.10;;;3.00;;
76725;SDS011;65651;53.154;17.916;2023-07-13T06:13:18;4.20;;;2.30;;
76725;SDS011;65651;53.154;17.916;2023-07-13T06:15:49;4.30;;;2.50;;
76725;SDS011;65651;53.154;17.916;2023-07-13T06:18:20;4.80;;;2.40;;
76725;SDS011;65651;53.154;17.916;2023-07-13T06:20:48;7.60;;;3.10;;
76725;SDS011;65651;53.154;17.916;2023-07-13T06:23:16;6.30;;;2.80;;
76725;SDS011;65651;53.154;17.916;2023-07-13T06:25:43;5.00;;;2.70;;
76725;SDS011;65651;53.154;17.916;2023-07-13T06:28:11;5.70;;;2.40;;
76725;SDS011;65651;53.154;17.916;2023-07-13T06:30:38;5.30;;;2.40;;
76725;SDS011;65651;53.154;17.916;2023-07-13T06:33:06;4.90;;;2.80;;
76725;SDS011;65651;53.154;17.916;2023-07-13T06:35:37;3.80;;;2.10;;
76725;SDS011;65651;53.154;17.916;2023-07-13T06:38:05;5.20;;;2.50;;
76725;SDS011;65651;53.154;17.916;2023-07-13T06:40:32;5.70;;;2.00;;
76725;SDS011;65651;53.154;17.916;2023-07-13T06:43:03;8.20;;;2.20;;
76725;SDS011;65651;53.154;17.916;2023-07-13T06:45:32;6.60;;;2.10;;
76725;SDS011;65651;53.154;17.916;2023-07-13T06:48:07;6.40;;;2.20;;
76725;SDS011;65651;53.154;17.916;2023-07-13T06:50:35;5.20;;;1.90;;
76725;SDS011;65651;53.154;17.916;2023-07-13T06:53:03;7.80;;;2.20;;
76725;SDS011;65651;53.154;17.916;2023-07-13T06:55:30;3.00;;;1.30;;
76725;SDS011;65651;53.154;17.916;2023-07-13T06:58:00;6.30;;;1.80;;
76725;SDS011;65651;53.154;17.916;2023-07-13T07:00:31;7.40;;;2.30;;
76725;SDS011;65651;53.154;17.916;2023-07-13T07:03:02;3.50;;;1.70;;
76725;SDS011;65651;53.154;17.916;2023-07-13T07:05:30;3.80;;;1.60;;
76725;SDS011;65651;53.154;17.916;2023-07-13T07:07:58;2.80;;;1.20;;
76725;SDS011;65651;53.154;17.916;2023-07-13T07:10:25;5.00;;;2.40;;
76725;SDS011;65651;53.154;17.916;2023-07-13T07:12:56;5.30;;;1.90;;
76725;SDS011;65651;53.154;17.916;2023-07-13T07:15:23;5.50;;;2.30;;
76725;SDS011;65651;53.154;17.916;2023-07-13T07:17:50;6.60;;;2.10;;
76725;SDS011;65651;53.154;17.916;2023-07-13T07:20:18;5.00;;;2.20;;
76725;SDS011;65651;53.154;17.916;2023-07-13T07:22:49;4.60;;;2.80;;
76725;SDS011;65651;53.154;17.916;2023-07-13T07:25:16;6.20;;;2.40;;
76725;SDS011;65651;53.154;17.916;2023-07-13T07:27:44;9.30;;;2.10;;
76725;SDS011;65651;53.154;17.916;2023-07-13T07:30:13;4.40;;;1.80;;
76725;SDS011;65651;53.154;17.916;2023-07-13T07:32:42;6.40;;;1.90;;
76725;SDS011;65651;53.154;17.916;2023-07-13T07:35:12;5.40;;;2.80;;
76725;SDS011;65651;53.154;17.916;2023-07-13T07:37:39;8.80;;;2.70;;
76725;SDS011;65651;53.154;17.916;2023-07-13T07:40:08;5.30;;;2.30;;
76725;SDS011;65651;53.154;17.916;2023-07-13T07:42:36;8.20;;;2.30;;
76725;SDS011;65651;53.154;17.916;2023-07-13T07:45:04;5.30;;;2.10;;
76725;SDS011;65651;53.154;17.916;2023-07-13T07:47:34;6.70;;;2.30;;
76725;SDS011;65651;53.154;17.916;2023-07-13T07:50:05;7.40;;;2.10;;
76725;SDS011;65651;53.154;17.916;2023-07-13T07:52:33;3.30;;;1.70;;
76725;SDS011;65651;53.154;17.916;2023-07-13T07:55:00;5.50;;;2.20;;
76725;SDS011;65651;53.154;17.916;2023-07-13T07:57:28;4.90;;;1.50;;
76725;SDS011;65651;53.154;17.916;2023-07-13T07:59:55;3.80;;;2.10;;
76725;SDS011;65651;53.154;17.916;2023-07-13T08:02:23;4.00;;;1.90;;
76725;SDS011;65651;53.154;17.916;2023-07-13T08:04:52;5.10;;;2.20;;
76725;SDS011;65651;53.154;17.916;2023-07-13T08:07:22;4.00;;;1.60;;
76725;SDS011;65651;53.154;17.916;2023-07-13T08:09:54;6.10;;;1.60;;
76725;SDS011;65651;53.154;17.916;2023-07-13T08:12:21;4.00;;;1.80;;
76725;SDS011;65651;53.154;17.916;2023-07-13T08:14:50;4.40;;;1.90;;
76725;SDS011;65651;53.154;17.916;2023-07-13T08:17:26;3.00;;;1.30;;
76725;SDS011;65651;53.154;17.916;2023-07-13T08:19:54;3.40;;;1.70;;
76725;SDS011;65651;53.154;17.916;2023-07-13T08:22:22;4.30;;;1.60;;
76725;SDS011;65651;53.154;17.916;2023-07-13T08:24:49;3.60;;;1.70;;
76725;SDS011;65651;53.154;17.916;2023-07-13T08:27:23;4.00;;;2.00;;
76725;SDS011;65651;53.154;17.916;2023-07-13T08:29:55;3.20;;;1.60;;
76725;SDS011;65651;53.154;17.916;2023-07-13T08:32:23;6.70;;;1.60;;
76725;SDS011;65651;53.154;17.916;2023-07-13T08:34:51;4.70;;;1.90;;
76725;SDS011;65651;53.154;17.916;2023-07-13T08:37:19;3.40;;;1.90;;
76725;SDS011;65651;53.154;17.916;2023-07-13T08:39:46;4.60;;;1.90;;
76725;SDS011;65651;53.154;17.916;2023-07-13T08:42:19;3.10;;;1.40;;
76725;SDS011;65651;53.154;17.916;2023-07-13T08:45:18;2.50;;;1.30;;
76725;SDS011;65651;53.154;17.916;2023-07-13T08:47:54;4.30;;;1.30;;
76725;SDS011;65651;53.154;17.916;2023-07-13T08:50:37;5.50;;;2.00;;
76725;SDS011;65651;53.154;17.916;2023-07-13T08:53:19;8.90;;;2.30;;
76725;SDS011;65651;53.154;17.916;2023-07-13T08:55:51;3.70;;;2.10;;
76725;SDS011;65651;53.154;17.916;2023-07-13T08:58:25;5.00;;;1.60;;
76725;SDS011;65651;53.154;17.916;2023-07-13T09:01:06;3.60;;;1.90;;
76725;SDS011;65651;53.154;17.916;2023-07-13T09:03:59;6.30;;;2.40;;
76725;SDS011;65651;53.154;17.916;2023-07-13T09:06:55;5.50;;;1.90;;
76725;SDS011;65651;53.154;17.916;2023-07-13T09:09:26;3.60;;;1.60;;
76725;SDS011;65651;53.154;17.916;2023-07-13T09:12:13;8.10;;;1.70;;
76725;SDS011;65651;53.154;17.916;2023-07-13T09:15:00;3.00;;;1.40;;
76725;SDS011;65651;53.154;17.916;2023-07-13T09:17:41;5.40;;;2.10;;
76725;SDS011;65651;53.154;17.916;2023-07-13T09:20:26;4.30;;;1.90;;
76725;SDS011;65651;53.154;17.916;2023-07-13T09:23:05;3.10;;;1.80;;
76725;SDS011;65651;53.154;17.916;2023-07-13T09:25:42;10.00;;;2.00;;
76725;SDS011;65651;53.154;17.916;2023-07-13T09:28:15;4.20;;;1.70;;
76725;SDS011;65651;53.154;17.916;2023-07-13T09:33:39;6.50;;;2.80;;
76725;SDS011;65651;53.154;17.916;2023-07-13T09:36:19;4.80;;;2.00;;
76725;SDS011;65651;53.154;17.916;2023-07-13T09:38:53;5.20;;;1.80;;
76725;SDS011;65651;53.154;17.916;2023-07-13T09:44:39;5.10;;;2.10;;
76725;SDS011;65651;53.154;17.916;2023-07-13T09:47:24;5.80;;;1.80;;
76725;SDS011;65651;53.154;17.916;2023-07-13T09:49:54;3.60;;;1.60;;
76725;SDS011;65651;53.154;17.916;2023-07-13T09:52:41;4.90;;;1.90;;
76725;SDS011;65651;53.154;17.916;2023-07-13T09:55:34;4.60;;;1.80;;
76725;SDS011;65651;53.154;17.916;2023-07-13T09:58:13;4.10;;;1.90;;
76725;SDS011;65651;53.154;17.916;2023-07-13T10:00:57;2.20;;;1.90;;
76725;SDS011;65651;53.154;17.916;2023-07-13T10:03:27;4.00;;;1.70;;
76725;SDS011;65651;53.154;17.916;2023-07-13T10:06:14;3.70;;;1.90;;
76725;SDS011;65651;53.154;17.916;2023-07-13T10:08:45;3.60;;;1.20;;
76725;SDS011;65651;53.154;17.916;2023-07-13T10:11:20;2.60;;;1.50;;
76725;SDS011;65651;53.154;17.916;2023-07-13T10:13:55;5.00;;;1.40;;
76725;SDS011;65651;53.154;17.916;2023-07-13T10:16:30;3.60;;;1.20;;
76725;SDS011;65651;53.154;17.916;2023-07-13T10:19:02;4.10;;;1.30;;
76725;SDS011;65651;53.154;17.916;2023-07-13T10:24:39;4.30;;;1.50;;
76725;SDS011;65651;53.154;17.916;2023-07-13T10:32:40;6.90;;;1.80;;
76725;SDS011;65651;53.154;17.916;2023-07-13T10:35:11;3.20;;;1.40;;
76725;SDS011;65651;53.154;17.916;2023-07-13T10:37:44;3.20;;;1.30;;
76725;SDS011;65651;53.154;17.916;2023-07-13T10:40:39;3.60;;;1.60;;
76725;SDS011;65651;53.154;17.916;2023-07-13T10:43:23;5.10;;;1.10;;
76725;SDS011;65651;53.154;17.916;2023-07-13T10:45:55;6.50;;;1.60;;
76725;SDS011;65651;53.154;17.916;2023-07-13T10:48:23;4.70;;;2.00;;
76725;SDS011;65651;53.154;17.916;2023-07-13T10:50:51;5.00;;;1.10;;
76725;SDS011;65651;53.154;17.916;2023-07-13T10:53:32;3.00;;;1.40;;
76725;SDS011;65651;53.154;17.916;2023-07-13T10:59:02;2.90;;;1.40;;
76725;SDS011;65651;53.154;17.916;2023-07-13T11:01:40;3.90;;;1.50;;
76725;SDS011;65651;53.154;17.916;2023-07-13T11:04:29;3.10;;;2.30;;
76725;SDS011;65651;53.154;17.916;2023-07-13T11:07:22;5.00;;;1.50;;
76725;SDS011;65651;53.154;17.916;2023-07-13T11:09:59;2.60;;;1.50;;
76725;SDS011;65651;53.154;17.916;2023-07-13T11:12:51;3.90;;;1.50;;
76725;SDS011;65651;53.154;17.916;2023-07-13T11:16:06;3.40;;;1.70;;
76725;SDS011;65651;53.154;17.916;2023-07-13T11:18:22;9.20;;;2.00;;
76725;SDS011;65651;53.154;17.916;2023-07-13T11:20:52;2.20;;;1.70;;
76725;SDS011;65651;53.154;17.916;2023-07-13T11:23:41;2.90;;;1.70;;
76725;SDS011;65651;53.154;17.916;2023-07-13T11:29:32;6.40;;;1.70;;
76725;SDS011;65651;53.154;17.916;2023-07-13T11:35:12;2.60;;;1.70;;
76725;SDS011;65651;53.154;17.916;2023-07-13T11:37:46;5.20;;;2.20;;
76725;SDS011;65651;53.154;17.916;2023-07-13T11:40:14;6.40;;;1.80;;
76725;SDS011;65651;53.154;17.916;2023-07-13T11:42:43;2.40;;;1.70;;
76725;SDS011;65651;53.154;17.916;2023-07-13T11:45:21;2.50;;;1.70;;
76725;SDS011;65651;53.154;17.916;2023-07-13T11:47:53;5.70;;;2.20;;
76725;SDS011;65651;53.154;17.916;2023-07-13T11:50:27;3.80;;;1.50;;
76725;SDS011;65651;53.154;17.916;2023-07-13T11:52:54;4.30;;;2.10;;
76725;SDS011;65651;53.154;17.916;2023-07-13T11:55:23;3.00;;;1.70;;
76725;SDS011;65651;53.154;17.916;2023-07-13T11:57:53;5.80;;;2.00;;
76725;SDS011;65651;53.154;17.916;2023-07-13T12:00:27;2.70;;;1.60;;
76725;SDS011;65651;53.154;17.916;2023-07-13T12:02:59;7.10;;;2.40;;
76725;SDS011;65651;53.154;17.916;2023-07-13T12:05:28;8.30;;;2.50;;
76725;SDS011;65651;53.154;17.916;2023-07-13T12:07:58;6.60;;;2.60;;
76725;SDS011;65651;53.154;17.916;2023-07-13T12:10:29;4.40;;;2.10;;
76725;SDS011;65651;53.154;17.916;2023-07-13T12:13:03;7.40;;;2.00;;
76725;SDS011;65651;53.154;17.916;2023-07-13T12:15:39;5.50;;;2.00;;
76725;SDS011;65651;53.154;17.916;2023-07-13T12:18:15;2.70;;;2.00;;
76725;SDS011;65651;53.154;17.916;2023-07-13T12:20:45;2.80;;;1.30;;
76725;SDS011;65651;53.154;17.916;2023-07-13T12:23:24;3.10;;;1.60;;
76725;SDS011;65651;53.154;17.916;2023-07-13T12:25:56;2.80;;;1.90;;
76725;SDS011;65651;53.154;17.916;2023-07-13T12:28:38;3.40;;;1.70;;
76725;SDS011;65651;53.154;17.916;2023-07-13T12:31:32;3.20;;;1.60;;
76725;SDS011;65651;53.154;17.916;2023-07-13T12:34:06;2.40;;;1.70;;
76725;SDS011;65651;53.154;17.916;2023-07-13T12:36:35;3.90;;;2.10;;
76725;SDS011;65651;53.154;17.916;2023-07-13T12:39:11;7.80;;;2.40;;
76725;SDS011;65651;53.154;17.916;2023-07-13T12:41:42;13.70;;;1.60;;
76725;SDS011;65651;53.154;17.916;2023-07-13T12:44:13;3.20;;;2.00;;
76725;SDS011;65651;53.154;17.916;2023-07-13T12:46:57;3.20;;;1.40;;
76725;SDS011;65651;53.154;17.916;2023-07-13T12:49:33;3.10;;;1.80;;
76725;SDS011;65651;53.154;17.916;2023-07-13T12:52:09;2.70;;;1.70;;
76725;SDS011;65651;53.154;17.916;2023-07-13T12:54:42;2.20;;;1.60;;
76725;SDS011;65651;53.154;17.916;2023-07-13T12:57:19;2.00;;;1.50;;
76725;SDS011;65651;53.154;17.916;2023-07-13T12:59:47;4.00;;;2.20;;
76725;SDS011;65651;53.154;17.916;2023-07-13T13:02:34;3.70;;;1.50;;
76725;SDS011;65651;53.154;17.916;2023-07-13T13:05:02;3.60;;;1.60;;
76725;SDS011;65651;53.154;17.916;2023-07-13T13:07:31;3.00;;;1.70;;
76725;SDS011;65651;53.154;17.916;2023-07-13T13:09:59;3.20;;;1.60;;
76725;SDS011;65651;53.154;17.916;2023-07-13T13:12:27;4.20;;;1.90;;
76725;SDS011;65651;53.154;17.916;2023-07-13T13:14:54;3.80;;;1.80;;
76725;SDS011;65651;53.154;17.916;2023-07-13T13:17:26;3.30;;;2.00;;
76725;SDS011;65651;53.154;17.916;2023-07-13T13:19:57;5.70;;;1.90;;
76725;SDS011;65651;53.154;17.916;2023-07-13T13:22:25;3.70;;;1.40;;
76725;SDS011;65651;53.154;17.916;2023-07-13T13:24:53;2.80;;;1.30;;
76725;SDS011;65651;53.154;17.916;2023-07-13T13:27:21;5.10;;;1.70;;
76725;SDS011;65651;53.154;17.916;2023-07-13T13:29:50;5.20;;;1.90;;
76725;SDS011;65651;53.154;17.916;2023-07-13T13:32:21;1.70;;;1.20;;
76725;SDS011;65651;53.154;17.916;2023-07-13T13:34:48;3.00;;;1.50;;
76725;SDS011;65651;53.154;17.916;2023-07-13T13:37:19;2.70;;;1.60;;
76725;SDS011;65651;53.154;17.916;2023-07-13T13:39:48;1.80;;;1.20;;
76725;SDS011;65651;53.154;17.916;2023-07-13T13:42:20;9.80;;;1.80;;
76725;SDS011;65651;53.154;17.916;2023-07-13T13:44:52;2.50;;;1.60;;
76725;SDS011;65651;53.154;17.916;2023-07-13T13:47:27;2.30;;;1.20;;
76725;SDS011;65651;53.154;17.916;2023-07-13T13:49:59;2.40;;;1.50;;
76725;SDS011;65651;53.154;17.916;2023-07-13T13:52:27;3.40;;;1.60;;
76725;SDS011;65651;53.154;17.916;2023-07-13T13:54:55;2.60;;;1.60;;
76725;SDS011;65651;53.154;17.916;2023-07-13T13:57:23;4.30;;;1.20;;
76725;SDS011;65651;53.154;17.916;2023-07-13T13:59:58;2.40;;;1.20;;
76725;SDS011;65651;53.154;17.916;2023-07-13T14:02:26;4.90;;;1.50;;
76725;SDS011;65651;53.154;17.916;2023-07-13T14:04:59;2.50;;;1.30;;
76725;SDS011;65651;53.154;17.916;2023-07-13T14:07:32;2.80;;;1.70;;
76725;SDS011;65651;53.154;17.916;2023-07-13T14:10:01;3.10;;;1.60;;
76725;SDS011;65651;53.154;17.916;2023-07-13T14:12:28;2.90;;;1.40;;
76725;SDS011;65651;53.154;17.916;2023-07-13T14:14:57;3.30;;;1.20;;
76725;SDS011;65651;53.154;17.916;2023-07-13T14:17:30;4.60;;;1.30;;
76725;SDS011;65651;53.154;17.916;2023-07-13T14:20:01;2.10;;;1.20;;
76725;SDS011;65651;53.154;17.916;2023-07-13T14:22:31;1.80;;;1.20;;
76725;SDS011;65651;53.154;17.916;2023-07-13T14:25:01;1.60;;;1.20;;
76725;SDS011;65651;53.154;17.916;2023-07-13T14:27:29;2.80;;;1.10;;
76725;SDS011;65651;53.154;17.916;2023-07-13T14:29:57;1.90;;;1.30;;
76725;SDS011;65651;53.154;17.916;2023-07-13T14:32:24;3.70;;;1.50;;
76725;SDS011;65651;53.154;17.916;2023-07-13T14:34:52;4.20;;;1.40;;
76725;SDS011;65651;53.154;17.916;2023-07-13T14:37:21;3.30;;;1.20;;
76725;SDS011;65651;53.154;17.916;2023-07-13T14:39:51;3.70;;;1.50;;
76725;SDS011;65651;53.154;17.916;2023-07-13T14:42:20;3.00;;;1.50;;
76725;SDS011;65651;53.154;17.916;2023-07-13T14:44:50;4.80;;;1.30;;
76725;SDS011;65651;53.154;17.916;2023-07-13T14:47:18;3.40;;;1.20;;
76725;SDS011;65651;53.154;17.916;2023-07-13T14:49:48;2.10;;;1.30;;
76725;SDS011;65651;53.154;17.916;2023-07-13T14:52:17;2.60;;;1.50;;
76725;SDS011;65651;53.154;17.916;2023-07-13T14:54:47;3.90;;;1.30;;
76725;SDS011;65651;53.154;17.916;2023-07-13T14:57:18;4.30;;;1.30;;
76725;SDS011;65651;53.154;17.916;2023-07-13T14:59:49;2.70;;;1.20;;
76725;SDS011;65651;53.154;17.916;2023-07-13T15:04:59;3.10;;;1.40;;
76725;SDS011;65651;53.154;17.916;2023-07-13T15:07:27;3.40;;;1.40;;
76725;SDS011;65651;53.154;17.916;2023-07-13T15:09:55;2.10;;;1.20;;
76725;SDS011;65651;53.154;17.916;2023-07-13T15:12:22;1.80;;;1.00;;
76725;SDS011;65651;53.154;17.916;2023-07-13T15:14:49;1.60;;;1.20;;
76725;SDS011;65651;53.154;17.916;2023-07-13T15:17:24;3.40;;;1.30;;
76725;SDS011;65651;53.154;17.916;2023-07-13T15:19:58;1.90;;;1.30;;
76725;SDS011;65651;53.154;17.916;2023-07-13T15:22:27;2.50;;;1.30;;
76725;SDS011;65651;53.154;17.916;2023-07-13T15:24:54;2.40;;;1.40;;